sensor_id;sensor_type;location;lat;lon;timestamp;temperature;humidity
37754;DHT22;23596;52.520;13.464;2023-03-08T00:01:40;1.90;99.90
37754;DHT22;23596;52.520;13.464;2023-03-08T00:04:05;1.90;99.90
37754;DHT22;23596;52.520;13.464;2023-03-08T00:06:31;1.90;99.90
37754;DHT22;23596;52.520;13.464;2023-03-08T00:08:58;1.80;99.90
37754;DHT22;23596;52.520;13.464;2023-03-08T00:11:24;1.80;99.90
37754;DHT22;23596;52.520;13.464;2023-03-08T00:13:50;1.80;99.90
37754;DHT22;23596;52.520;13.464;2023-03-08T00:16:17;1.80;99.90
37754;DHT22;23596;52.520;13.464;2023-03-08T00:18:43;1.80;99.90
37754;DHT22;23596;52.520;13.464;2023-03-08T00:21:15;1.70;99.90
37754;DHT22;23596;52.520;13.464;2023-03-08T00:23:41;1.70;99.90
37754;DHT22;23596;52.520;13.464;2023-03-08T00:26:07;1.70;99.90
37754;DHT22;23596;52.520;13.464;2023-03-08T00:28:33;1.70;99.90
37754;DHT22;23596;52.520;13.464;2023-03-08T00:31:00;1.60;99.90
37754;DHT22;23596;52.520;13.464;2023-03-08T00:33:27;1.60;99.90
37754;DHT22;23596;52.520;13.464;2023-03-08T00:35:56;1.60;99.90
37754;DHT22;23596;52.520;13.464;2023-03-08T00:38:22;1.60;99.90
37754;DHT22;23596;52.520;13.464;2023-03-08T00:40:48;1.60;99.90
37754;DHT22;23596;52.520;13.464;2023-03-08T00:43:14;1.60;99.90
37754;DHT22;23596;52.520;13.464;2023-03-08T00:45:39;1.60;99.90
37754;DHT22;23596;52.520;13.464;2023-03-08T00:48:05;1.60;99.90
37754;DHT22;23596;52.520;13.464;2023-03-08T00:50:30;1.50;99.90
37754;DHT22;23596;52.520;13.464;2023-03-08T00:52:56;1.50;99.90
37754;DHT22;23596;52.520;13.464;2023-03-08T00:55:22;1.50;99.90
37754;DHT22;23596;52.520;13.464;2023-03-08T00:57:47;1.50;99.90
37754;DHT22;23596;52.520;13.464;2023-03-08T01:00:13;1.50;99.90
37754;DHT22;23596;52.520;13.464;2023-03-08T01:02:39;1.50;99.90
37754;DHT22;23596;52.520;13.464;2023-03-08T01:05:06;1.50;99.90
37754;DHT22;23596;52.520;13.464;2023-03-08T01:07:32;1.50;99.90
37754;DHT22;23596;52.520;13.464;2023-03-08T01:09:58;1.50;99.90
37754;DHT22;23596;52.520;13.464;2023-03-08T01:12:23;1.50;99.90
37754;DHT22;23596;52.520;13.464;2023-03-08T01:14:51;1.50;99.90
37754;DHT22;23596;52.520;13.464;2023-03-08T01:17:16;1.50;99.90
37754;DHT22;23596;52.520;13.464;2023-03-08T01:19:42;1.50;99.90
37754;DHT22;23596;52.520;13.464;2023-03-08T01:22:07;1.50;99.90
37754;DHT22;23596;52.520;13.464;2023-03-08T01:24:33;1.50;99.90
37754;DHT22;23596;52.520;13.464;2023-03-08T01:26:58;1.40;99.90
37754;DHT22;23596;52.520;13.464;2023-03-08T01:29:25;1.40;99.90
37754;DHT22;23596;52.520;13.464;2023-03-08T01:31:51;1.40;99.90
37754;DHT22;23596;52.520;13.464;2023-03-08T01:34:18;1.40;99.90
37754;DHT22;23596;52.520;13.464;2023-03-08T01:36:44;1.40;99.90
37754;DHT22;23596;52.520;13.464;2023-03-08T01:39:10;1.30;99.90
37754;DHT22;23596;52.520;13.464;2023-03-08T01:41:35;1.30;99.90
37754;DHT22;23596;52.520;13.464;2023-03-08T01:44:01;1.30;99.90
37754;DHT22;23596;52.520;13.464;2023-03-08T01:46:33;1.30;99.90
37754;DHT22;23596;52.520;13.464;2023-03-08T01:51:37;1.20;99.90
37754;DHT22;23596;52.520;13.464;2023-03-08T01:54:12;1.20;99.90
37754;DHT22;23596;52.520;13.464;2023-03-08T01:56:40;1.20;99.90
37754;DHT22;23596;52.520;13.464;2023-03-08T01:59:07;1.20;99.90
37754;DHT22;23596;52.520;13.464;2023-03-08T02:01:34;1.20;99.90
37754;DHT22;23596;52.520;13.464;2023-03-08T02:04:00;1.20;99.90
37754;DHT22;23596;52.520;13.464;2023-03-08T02:06:27;1.20;99.90
37754;DHT22;23596;52.520;13.464;2023-03-08T02:08:52;1.20;99.90
37754;DHT22;23596;52.520;13.464;2023-03-08T02:11:19;1.20;99.90
37754;DHT22;23596;52.520;13.464;2023-03-08T02:13:45;1.30;99.90
37754;DHT22;23596;52.520;13.464;2023-03-08T02:16:12;1.20;99.90
37754;DHT22;23596;52.520;13.464;2023-03-08T02:18:51;1.30;99.90
37754;DHT22;23596;52.520;13.464;2023-03-08T02:21:16;1.30;99.90
37754;DHT22;23596;52.520;13.464;2023-03-08T02:23:42;1.30;99.90
37754;DHT22;23596;52.520;13.464;2023-03-08T02:26:07;1.20;99.90
37754;DHT22;23596;52.520;13.464;2023-03-08T02:28:33;1.20;99.90
37754;DHT22;23596;52.520;13.464;2023-03-08T02:30:59;1.20;99.90
37754;DHT22;23596;52.520;13.464;2023-03-08T02:33:25;1.30;99.90
37754;DHT22;23596;52.520;13.464;2023-03-08T02:35:51;1.20;99.90
37754;DHT22;23596;52.520;13.464;2023-03-08T02:38:18;1.10;99.90
37754;DHT22;23596;52.520;13.464;2023-03-08T02:40:45;1.10;99.90
37754;DHT22;23596;52.520;13.464;2023-03-08T02:43:11;1.00;99.90
37754;DHT22;23596;52.520;13.464;2023-03-08T02:45:37;1.10;99.90
37754;DHT22;23596;52.520;13.464;2023-03-08T02:48:04;1.10;99.90
37754;DHT22;23596;52.520;13.464;2023-03-08T02:50:30;1.10;99.90
37754;DHT22;23596;52.520;13.464;2023-03-08T02:52:56;1.10;99.90
37754;DHT22;23596;52.520;13.464;2023-03-08T02:55:22;1.00;99.90
37754;DHT22;23596;52.520;13.464;2023-03-08T02:57:47;1.00;99.90
37754;DHT22;23596;52.520;13.464;2023-03-08T03:00:13;1.00;99.90
37754;DHT22;23596;52.520;13.464;2023-03-08T03:02:39;1.00;99.90
37754;DHT22;23596;52.520;13.464;2023-03-08T03:05:07;1.00;99.90
37754;DHT22;23596;52.520;13.464;2023-03-08T03:07:37;1.00;99.90
37754;DHT22;23596;52.520;13.464;2023-03-08T03:10:04;1.00;99.90
37754;DHT22;23596;52.520;13.464;2023-03-08T03:12:30;0.90;99.90
37754;DHT22;23596;52.520;13.464;2023-03-08T03:14:56;0.90;99.90
37754;DHT22;23596;52.520;13.464;2023-03-08T03:17:21;1.00;99.90
37754;DHT22;23596;52.520;13.464;2023-03-08T03:19:47;1.00;99.90
37754;DHT22;23596;52.520;13.464;2023-03-08T03:22:13;1.00;99.90
37754;DHT22;23596;52.520;13.464;2023-03-08T03:24:39;1.10;99.90
37754;DHT22;23596;52.520;13.464;2023-03-08T03:27:04;1.00;99.90
37754;DHT22;23596;52.520;13.464;2023-03-08T03:29:30;1.00;99.90
37754;DHT22;23596;52.520;13.464;2023-03-08T03:31:55;1.00;99.90
37754;DHT22;23596;52.520;13.464;2023-03-08T03:34:21;1.00;99.90
37754;DHT22;23596;52.520;13.464;2023-03-08T03:36:47;1.00;99.90
37754;DHT22;23596;52.520;13.464;2023-03-08T03:39:12;1.00;99.90
37754;DHT22;23596;52.520;13.464;2023-03-08T03:41:38;1.00;99.90
37754;DHT22;23596;52.520;13.464;2023-03-08T03:44:04;1.00;99.90
37754;DHT22;23596;52.520;13.464;2023-03-08T03:46:29;1.00;99.90
37754;DHT22;23596;52.520;13.464;2023-03-08T03:48:55;1.10;99.90
37754;DHT22;23596;52.520;13.464;2023-03-08T03:51:21;1.00;99.90
37754;DHT22;23596;52.520;13.464;2023-03-08T03:53:47;1.00;99.90
37754;DHT22;23596;52.520;13.464;2023-03-08T03:56:21;1.00;99.90
37754;DHT22;23596;52.520;13.464;2023-03-08T03:58:47;1.00;99.90
37754;DHT22;23596;52.520;13.464;2023-03-08T04:01:15;1.10;99.90
37754;DHT22;23596;52.520;13.464;2023-03-08T04:03:42;1.10;99.90
37754;DHT22;23596;52.520;13.464;2023-03-08T04:06:13;1.10;99.90
37754;DHT22;23596;52.520;13.464;2023-03-08T04:08:40;1.00;99.90
37754;DHT22;23596;52.520;13.464;2023-03-08T04:11:08;1.00;99.90
37754;DHT22;23596;52.520;13.464;2023-03-08T04:13:35;1.00;99.90
37754;DHT22;23596;52.520;13.464;2023-03-08T04:16:11;1.00;99.90
37754;DHT22;23596;52.520;13.464;2023-03-08T04:18:37;1.00;99.90
37754;DHT22;23596;52.520;13.464;2023-03-08T04:21:02;1.00;99.90
37754;DHT22;23596;52.520;13.464;2023-03-08T04:23:28;1.00;99.90
37754;DHT22;23596;52.520;13.464;2023-03-08T04:25:53;1.00;99.90
37754;DHT22;23596;52.520;13.464;2023-03-08T04:28:19;1.00;99.90
37754;DHT22;23596;52.520;13.464;2023-03-08T04:30:45;1.00;99.90
37754;DHT22;23596;52.520;13.464;2023-03-08T04:33:10;1.00;99.90
37754;DHT22;23596;52.520;13.464;2023-03-08T04:35:36;1.10;99.90
37754;DHT22;23596;52.520;13.464;2023-03-08T04:38:02;1.10;99.90
37754;DHT22;23596;52.520;13.464;2023-03-08T04:40:27;1.10;99.90
37754;DHT22;23596;52.520;13.464;2023-03-08T04:42:54;1.10;99.90
37754;DHT22;23596;52.520;13.464;2023-03-08T04:45:20;1.10;99.90
37754;DHT22;23596;52.520;13.464;2023-03-08T04:47:46;1.10;99.90
37754;DHT22;23596;52.520;13.464;2023-03-08T04:50:11;1.10;99.90
37754;DHT22;23596;52.520;13.464;2023-03-08T04:52:37;1.10;99.90
37754;DHT22;23596;52.520;13.464;2023-03-08T04:55:03;1.10;99.90
37754;DHT22;23596;52.520;13.464;2023-03-08T04:57:29;1.10;99.90
37754;DHT22;23596;52.520;13.464;2023-03-08T04:59:54;1.10;99.90
37754;DHT22;23596;52.520;13.464;2023-03-08T05:02:21;1.00;99.90
37754;DHT22;23596;52.520;13.464;2023-03-08T05:04:47;1.00;99.90
37754;DHT22;23596;52.520;13.464;2023-03-08T05:07:13;0.90;99.90
37754;DHT22;23596;52.520;13.464;2023-03-08T05:09:39;0.90;99.90
37754;DHT22;23596;52.520;13.464;2023-03-08T05:12:05;0.90;99.90
37754;DHT22;23596;52.520;13.464;2023-03-08T05:14:30;0.90;99.90
37754;DHT22;23596;52.520;13.464;2023-03-08T05:16:56;0.90;99.90
37754;DHT22;23596;52.520;13.464;2023-03-08T05:19:22;0.90;99.90
37754;DHT22;23596;52.520;13.464;2023-03-08T05:21:48;0.90;99.90
37754;DHT22;23596;52.520;13.464;2023-03-08T05:24:14;0.90;99.90
37754;DHT22;23596;52.520;13.464;2023-03-08T05:26:40;0.90;99.90
37754;DHT22;23596;52.520;13.464;2023-03-08T05:29:05;0.90;99.90
37754;DHT22;23596;52.520;13.464;2023-03-08T05:31:32;0.90;99.90
37754;DHT22;23596;52.520;13.464;2023-03-08T05:33:58;0.90;99.90
37754;DHT22;23596;52.520;13.464;2023-03-08T05:36:24;0.90;99.90
37754;DHT22;23596;52.520;13.464;2023-03-08T05:38:53;1.00;99.90
37754;DHT22;23596;52.520;13.464;2023-03-08T05:41:19;1.00;99.90
37754;DHT22;23596;52.520;13.464;2023-03-08T05:43:45;1.00;99.90
37754;DHT22;23596;52.520;13.464;2023-03-08T05:46:16;1.10;99.90
37754;DHT22;23596;52.520;13.464;2023-03-08T05:48:42;1.10;99.90
37754;DHT22;23596;52.520;13.464;2023-03-08T05:51:10;1.10;99.90
37754;DHT22;23596;52.520;13.464;2023-03-08T05:53:36;1.10;99.90
37754;DHT22;23596;52.520;13.464;2023-03-08T05:56:22;1.10;99.90
37754;DHT22;23596;52.520;13.464;2023-03-08T05:58:49;1.20;99.90
37754;DHT22;23596;52.520;13.464;2023-03-08T06:01:18;1.20;99.90
37754;DHT22;23596;52.520;13.464;2023-03-08T06:03:45;1.20;99.90
37754;DHT22;23596;52.520;13.464;2023-03-08T06:06:11;1.20;99.90
37754;DHT22;23596;52.520;13.464;2023-03-08T06:08:37;1.20;99.90
37754;DHT22;23596;52.520;13.464;2023-03-08T06:11:03;1.20;99.90
37754;DHT22;23596;52.520;13.464;2023-03-08T06:13:29;1.20;99.90
37754;DHT22;23596;52.520;13.464;2023-03-08T06:15:56;1.20;99.90
37754;DHT22;23596;52.520;13.464;2023-03-08T06:18:23;1.20;99.90
37754;DHT22;23596;52.520;13.464;2023-03-08T06:20:58;1.30;99.90
37754;DHT22;23596;52.520;13.464;2023-03-08T06:23:25;1.30;99.90
37754;DHT22;23596;52.520;13.464;2023-03-08T06:25:51;1.20;99.90
37754;DHT22;23596;52.520;13.464;2023-03-08T06:28:16;1.20;99.90
37754;DHT22;23596;52.520;13.464;2023-03-08T06:30:42;1.20;99.90
37754;DHT22;23596;52.520;13.464;2023-03-08T06:33:08;1.20;99.90
37754;DHT22;23596;52.520;13.464;2023-03-08T06:35:34;1.30;99.90
37754;DHT22;23596;52.520;13.464;2023-03-08T06:37:59;1.30;99.90
37754;DHT22;23596;52.520;13.464;2023-03-08T06:40:25;1.30;99.90
37754;DHT22;23596;52.520;13.464;2023-03-08T06:42:50;1.30;99.90
37754;DHT22;23596;52.520;13.464;2023-03-08T06:45:16;1.20;99.90
37754;DHT22;23596;52.520;13.464;2023-03-08T06:47:42;1.20;99.90
37754;DHT22;23596;52.520;13.464;2023-03-08T06:50:08;1.20;99.90
37754;DHT22;23596;52.520;13.464;2023-03-08T06:52:34;1.20;99.90
37754;DHT22;23596;52.520;13.464;2023-03-08T06:55:03;1.20;99.90
37754;DHT22;23596;52.520;13.464;2023-03-08T06:57:29;1.20;99.90
37754;DHT22;23596;52.520;13.464;2023-03-08T06:59:54;1.20;99.90
37754;DHT22;23596;52.520;13.464;2023-03-08T07:02:20;1.20;99.90
37754;DHT22;23596;52.520;13.464;2023-03-08T07:04:46;1.20;99.90
37754;DHT22;23596;52.520;13.464;2023-03-08T07:07:11;1.20;99.90
37754;DHT22;23596;52.520;13.464;2023-03-08T07:09:37;1.20;99.90
37754;DHT22;23596;52.520;13.464;2023-03-08T07:12:03;1.10;99.90
37754;DHT22;23596;52.520;13.464;2023-03-08T07:14:28;1.20;99.90
37754;DHT22;23596;52.520;13.464;2023-03-08T07:16:54;1.20;99.90
37754;DHT22;23596;52.520;13.464;2023-03-08T07:19:20;1.20;99.90
37754;DHT22;23596;52.520;13.464;2023-03-08T07:21:46;1.30;99.90
37754;DHT22;23596;52.520;13.464;2023-03-08T07:24:11;1.30;99.90
37754;DHT22;23596;52.520;13.464;2023-03-08T07:26:37;1.30;99.90
37754;DHT22;23596;52.520;13.464;2023-03-08T07:29:03;1.30;99.90
37754;DHT22;23596;52.520;13.464;2023-03-08T07:31:28;1.30;99.90
37754;DHT22;23596;52.520;13.464;2023-03-08T07:33:55;1.30;99.90
37754;DHT22;23596;52.520;13.464;2023-03-08T07:36:21;1.30;99.90
37754;DHT22;23596;52.520;13.464;2023-03-08T07:38:47;1.30;99.90
37754;DHT22;23596;52.520;13.464;2023-03-08T07:41:13;1.50;99.90
37754;DHT22;23596;52.520;13.464;2023-03-08T07:43:39;1.40;99.90
37754;DHT22;23596;52.520;13.464;2023-03-08T07:46:05;1.40;99.90
37754;DHT22;23596;52.520;13.464;2023-03-08T07:48:31;1.50;99.90
37754;DHT22;23596;52.520;13.464;2023-03-08T07:51:01;1.50;99.90
37754;DHT22;23596;52.520;13.464;2023-03-08T07:53:28;1.50;99.90
37754;DHT22;23596;52.520;13.464;2023-03-08T07:55:53;1.50;99.90
37754;DHT22;23596;52.520;13.464;2023-03-08T07:58:21;1.50;99.90
37754;DHT22;23596;52.520;13.464;2023-03-08T08:00:46;1.60;99.90
37754;DHT22;23596;52.520;13.464;2023-03-08T08:03:12;1.60;99.90
37754;DHT22;23596;52.520;13.464;2023-03-08T08:05:38;1.60;99.90
37754;DHT22;23596;52.520;13.464;2023-03-08T08:08:03;1.70;99.90
37754;DHT22;23596;52.520;13.464;2023-03-08T08:10:29;1.70;99.90
37754;DHT22;23596;52.520;13.464;2023-03-08T08:12:54;1.80;99.90
37754;DHT22;23596;52.520;13.464;2023-03-08T08:15:20;1.90;99.90
37754;DHT22;23596;52.520;13.464;2023-03-08T08:17:47;1.90;99.90
37754;DHT22;23596;52.520;13.464;2023-03-08T08:20:13;2.00;99.90
37754;DHT22;23596;52.520;13.464;2023-03-08T08:22:39;2.00;99.90
37754;DHT22;23596;52.520;13.464;2023-03-08T08:25:05;2.10;99.90
37754;DHT22;23596;52.520;13.464;2023-03-08T08:27:31;2.10;99.90
37754;DHT22;23596;52.520;13.464;2023-03-08T08:29:57;2.20;99.90
37754;DHT22;23596;52.520;13.464;2023-03-08T08:32:24;2.20;99.90
37754;DHT22;23596;52.520;13.464;2023-03-08T08:34:49;2.30;99.90
37754;DHT22;23596;52.520;13.464;2023-03-08T08:37:16;2.30;99.90
37754;DHT22;23596;52.520;13.464;2023-03-08T08:39:41;2.40;99.90
37754;DHT22;23596;52.520;13.464;2023-03-08T08:42:07;2.60;99.90
37754;DHT22;23596;52.520;13.464;2023-03-08T08:44:32;2.60;99.90
37754;DHT22;23596;52.520;13.464;2023-03-08T08:46:58;2.60;99.90
37754;DHT22;23596;52.520;13.464;2023-03-08T08:49:24;2.70;99.90
37754;DHT22;23596;52.520;13.464;2023-03-08T08:51:49;2.70;99.90
37754;DHT22;23596;52.520;13.464;2023-03-08T08:54:16;2.80;99.90
37754;DHT22;23596;52.520;13.464;2023-03-08T08:56:42;2.80;99.90
37754;DHT22;23596;52.520;13.464;2023-03-08T08:59:10;2.80;99.90
37754;DHT22;23596;52.520;13.464;2023-03-08T09:01:36;3.00;99.90
37754;DHT22;23596;52.520;13.464;2023-03-08T09:04:10;3.40;99.90
37754;DHT22;23596;52.520;13.464;2023-03-08T09:06:37;3.00;99.90
37754;DHT22;23596;52.520;13.464;2023-03-08T09:09:03;2.90;99.90
37754;DHT22;23596;52.520;13.464;2023-03-08T09:11:29;3.00;99.90
37754;DHT22;23596;52.520;13.464;2023-03-08T09:13:55;3.00;99.90
37754;DHT22;23596;52.520;13.464;2023-03-08T09:16:26;3.10;99.90
37754;DHT22;23596;52.520;13.464;2023-03-08T09:18:53;3.00;99.90
37754;DHT22;23596;52.520;13.464;2023-03-08T09:21:20;3.00;99.90
37754;DHT22;23596;52.520;13.464;2023-03-08T09:23:46;3.10;99.90
37754;DHT22;23596;52.520;13.464;2023-03-08T09:26:12;3.10;99.90
37754;DHT22;23596;52.520;13.464;2023-03-08T09:28:38;3.10;99.90
37754;DHT22;23596;52.520;13.464;2023-03-08T09:31:09;3.20;99.90
37754;DHT22;23596;52.520;13.464;2023-03-08T09:33:42;3.30;99.90
37754;DHT22;23596;52.520;13.464;2023-03-08T09:36:08;3.50;99.90
37754;DHT22;23596;52.520;13.464;2023-03-08T09:38:33;3.60;99.90
37754;DHT22;23596;52.520;13.464;2023-03-08T09:41:22;3.60;99.90
37754;DHT22;23596;52.520;13.464;2023-03-08T09:46:59;3.60;99.90
37754;DHT22;23596;52.520;13.464;2023-03-08T09:49:30;3.60;99.90
37754;DHT22;23596;52.520;13.464;2023-03-08T09:54:34;3.70;99.90
37754;DHT22;23596;52.520;13.464;2023-03-08T09:57:04;3.80;99.90
37754;DHT22;23596;52.520;13.464;2023-03-08T09:59:44;3.80;99.90
37754;DHT22;23596;52.520;13.464;2023-03-08T10:07:26;3.80;99.90
37754;DHT22;23596;52.520;13.464;2023-03-08T10:15:22;3.80;99.90
37754;DHT22;23596;52.520;13.464;2023-03-08T10:20:34;4.10;99.90
37754;DHT22;23596;52.520;13.464;2023-03-08T10:23:10;4.20;99.90
37754;DHT22;23596;52.520;13.464;2023-03-08T10:25:37;4.30;99.90
37754;DHT22;23596;52.520;13.464;2023-03-08T10:28:15;4.40;99.90
37754;DHT22;23596;52.520;13.464;2023-03-08T10:30:51;4.40;99.90
37754;DHT22;23596;52.520;13.464;2023-03-08T10:33:20;4.40;99.90
37754;DHT22;23596;52.520;13.464;2023-03-08T10:39:05;4.50;99.90
37754;DHT22;23596;52.520;13.464;2023-03-08T10:41:35;4.60;99.90
37754;DHT22;23596;52.520;13.464;2023-03-08T10:44:01;4.60;99.90
37754;DHT22;23596;52.520;13.464;2023-03-08T10:46:28;4.60;99.90
37754;DHT22;23596;52.520;13.464;2023-03-08T10:49:16;4.60;99.90
37754;DHT22;23596;52.520;13.464;2023-03-08T10:51:58;4.50;99.90
37754;DHT22;23596;52.520;13.464;2023-03-08T10:54:24;4.50;99.90
37754;DHT22;23596;52.520;13.464;2023-03-08T10:57:00;4.60;99.90
37754;DHT22;23596;52.520;13.464;2023-03-08T10:59:32;4.70;99.90
37754;DHT22;23596;52.520;13.464;2023-03-08T11:02:16;4.80;99.90
37754;DHT22;23596;52.520;13.464;2023-03-08T11:04:54;4.90;99.90
37754;DHT22;23596;52.520;13.464;2023-03-08T11:07:26;4.90;99.90
37754;DHT22;23596;52.520;13.464;2023-03-08T11:10:13;4.90;99.90
37754;DHT22;23596;52.520;13.464;2023-03-08T11:12:39;4.80;99.90
37754;DHT22;23596;52.520;13.464;2023-03-08T11:15:31;4.80;99.90
37754;DHT22;23596;52.520;13.464;2023-03-08T11:21:03;4.80;99.90
37754;DHT22;23596;52.520;13.464;2023-03-08T11:26:26;4.80;99.90
37754;DHT22;23596;52.520;13.464;2023-03-08T11:35:08;5.00;99.90
37754;DHT22;23596;52.520;13.464;2023-03-08T11:37:45;5.00;99.90
37754;DHT22;23596;52.520;13.464;2023-03-08T11:48:27;5.30;99.90
37754;DHT22;23596;52.520;13.464;2023-03-08T11:51:07;5.30;99.90
37754;DHT22;23596;52.520;13.464;2023-03-08T11:56:36;5.20;99.90
37754;DHT22;23596;52.520;13.464;2023-03-08T11:59:32;5.30;99.90
37754;DHT22;23596;52.520;13.464;2023-03-08T12:10:20;5.20;99.90
37754;DHT22;23596;52.520;13.464;2023-03-08T12:17:58;5.10;99.90
37754;DHT22;23596;52.520;13.464;2023-03-08T12:20:30;5.00;99.90
37754;DHT22;23596;52.520;13.464;2023-03-08T12:22:59;5.10;99.90
37754;DHT22;23596;52.520;13.464;2023-03-08T12:25:34;5.10;99.90
37754;DHT22;23596;52.520;13.464;2023-03-08T12:33:11;5.40;99.90
37754;DHT22;23596;52.520;13.464;2023-03-08T12:36:09;5.50;99.90
37754;DHT22;23596;52.520;13.464;2023-03-08T12:38:42;5.60;99.90
37754;DHT22;23596;52.520;13.464;2023-03-08T12:41:27;5.70;99.90
37754;DHT22;23596;52.520;13.464;2023-03-08T12:44:20;5.70;99.90
37754;DHT22;23596;52.520;13.464;2023-03-08T12:46:55;5.70;99.90
37754;DHT22;23596;52.520;13.464;2023-03-08T12:49:34;5.70;99.90
37754;DHT22;23596;52.520;13.464;2023-03-08T12:55:03;5.60;99.90
37754;DHT22;23596;52.520;13.464;2023-03-08T12:57:43;5.60;99.90
37754;DHT22;23596;52.520;13.464;2023-03-08T13:02:44;5.50;99.90
37754;DHT22;23596;52.520;13.464;2023-03-08T13:05:30;5.50;99.90
37754;DHT22;23596;52.520;13.464;2023-03-08T13:11:03;5.40;99.90
37754;DHT22;23596;52.520;13.464;2023-03-08T13:18:45;5.40;99.90
37754;DHT22;23596;52.520;13.464;2023-03-08T13:24:03;5.40;99.90
37754;DHT22;23596;52.520;13.464;2023-03-08T13:26:44;5.40;99.90
37754;DHT22;23596;52.520;13.464;2023-03-08T13:29:16;5.40;99.90
37754;DHT22;23596;52.520;13.464;2023-03-08T13:31:43;5.40;99.90
37754;DHT22;23596;52.520;13.464;2023-03-08T13:34:30;5.40;99.90
37754;DHT22;23596;52.520;13.464;2023-03-08T13:36:56;5.40;99.90
37754;DHT22;23596;52.520;13.464;2023-03-08T13:39:26;5.30;99.90
37754;DHT22;23596;52.520;13.464;2023-03-08T13:41:52;5.30;99.90
37754;DHT22;23596;52.520;13.464;2023-03-08T13:44:24;5.20;99.90
37754;DHT22;23596;52.520;13.464;2023-03-08T13:46:53;5.40;99.90
37754;DHT22;23596;52.520;13.464;2023-03-08T13:49:21;5.30;99.90
37754;DHT22;23596;52.520;13.464;2023-03-08T13:51:48;5.10;99.90
37754;DHT22;23596;52.520;13.464;2023-03-08T13:54:29;5.00;99.90
37754;DHT22;23596;52.520;13.464;2023-03-08T13:57:00;4.80;99.90
37754;DHT22;23596;52.520;13.464;2023-03-08T13:59:27;4.70;99.90
37754;DHT22;23596;52.520;13.464;2023-03-08T14:01:54;4.60;99.90
37754;DHT22;23596;52.520;13.464;2023-03-08T14:04:29;4.50;99.90
37754;DHT22;23596;52.520;13.464;2023-03-08T14:06:59;4.50;99.90
37754;DHT22;23596;52.520;13.464;2023-03-08T14:09:26;4.50;99.90
37754;DHT22;23596;52.520;13.464;2023-03-08T14:12:00;4.50;99.90
37754;DHT22;23596;52.520;13.464;2023-03-08T14:14:33;4.30;99.90
37754;DHT22;23596;52.520;13.464;2023-03-08T14:17:00;4.30;99.90
37754;DHT22;23596;52.520;13.464;2023-03-08T14:19:37;4.10;99.90
37754;DHT22;23596;52.520;13.464;2023-03-08T14:22:13;4.10;99.90
37754;DHT22;23596;52.520;13.464;2023-03-08T14:24:40;3.90;99.90
37754;DHT22;23596;52.520;13.464;2023-03-08T14:29:39;3.80;99.90
37754;DHT22;23596;52.520;13.464;2023-03-08T14:39:40;3.50;99.90
37754;DHT22;23596;52.520;13.464;2023-03-08T14:42:29;3.60;99.90
37754;DHT22;23596;52.520;13.464;2023-03-08T14:44:59;3.50;99.90
37754;DHT22;23596;52.520;13.464;2023-03-08T14:47:28;3.50;99.90
37754;DHT22;23596;52.520;13.464;2023-03-08T14:52:31;3.60;99.90
37754;DHT22;23596;52.520;13.464;2023-03-08T14:55:01;3.60;99.90
37754;DHT22;23596;52.520;13.464;2023-03-08T14:57:28;3.60;99.90
37754;DHT22;23596;52.520;13.464;2023-03-08T15:00:15;3.70;99.90
37754;DHT22;23596;52.520;13.464;2023-03-08T15:02:41;3.70;99.90
37754;DHT22;23596;52.520;13.464;2023-03-08T15:05:15;3.60;99.90
37754;DHT22;23596;52.520;13.464;2023-03-08T15:07:41;3.70;99.90
37754;DHT22;23596;52.520;13.464;2023-03-08T15:10:15;3.60;99.90
37754;DHT22;23596;52.520;13.464;2023-03-08T15:12:41;3.60;99.90
37754;DHT22;23596;52.520;13.464;2023-03-08T15:15:14;3.60;99.90
37754;DHT22;23596;52.520;13.464;2023-03-08T15:17:40;3.60;99.90
37754;DHT22;23596;52.520;13.464;2023-03-08T15:20:06;3.60;99.90
37754;DHT22;23596;52.520;13.464;2023-03-08T15:22:37;3.60;99.90
37754;DHT22;23596;52.520;13.464;2023-03-08T15:25:12;3.50;99.90
37754;DHT22;23596;52.520;13.464;2023-03-08T15:27:38;3.50;99.90
37754;DHT22;23596;52.520;13.464;2023-03-08T15:30:04;3.50;99.90
37754;DHT22;23596;52.520;13.464;2023-03-08T15:32:30;3.50;99.90
37754;DHT22;23596;52.520;13.464;2023-03-08T15:34:55;3.50;99.90
37754;DHT22;23596;52.520;13.464;2023-03-08T15:37:21;3.50;99.90
37754;DHT22;23596;52.520;13.464;2023-03-08T15:39:47;3.50;99.90
37754;DHT22;23596;52.520;13.464;2023-03-08T15:42:12;3.50;99.90
37754;DHT22;23596;52.520;13.464;2023-03-08T15:44:38;3.50;99.90
37754;DHT22;23596;52.520;13.464;2023-03-08T15:47:03;3.40;99.90
37754;DHT22;23596;52.520;13.464;2023-03-08T15:49:29;3.40;99.90
37754;DHT22;23596;52.520;13.464;2023-03-08T15:51:55;3.40;99.90
37754;DHT22;23596;52.520;13.464;2023-03-08T15:54:20;3.40;99.90
37754;DHT22;23596;52.520;13.464;2023-03-08T15:56:46;3.40;99.90
37754;DHT22;23596;52.520;13.464;2023-03-08T15:59:12;3.40;99.90
37754;DHT22;23596;52.520;13.464;2023-03-08T16:01:37;3.40;99.90
37754;DHT22;23596;52.520;13.464;2023-03-08T16:04:03;3.40;99.90
37754;DHT22;23596;52.520;13.464;2023-03-08T16:06:28;3.50;99.90
37754;DHT22;23596;52.520;13.464;2023-03-08T16:08:55;3.40;99.90
37754;DHT22;23596;52.520;13.464;2023-03-08T16:11:20;3.40;99.90
37754;DHT22;23596;52.520;13.464;2023-03-08T16:13:49;3.50;99.90
37754;DHT22;23596;52.520;13.464;2023-03-08T16:16:14;3.40;99.90
37754;DHT22;23596;52.520;13.464;2023-03-08T16:18:40;3.40;99.90
37754;DHT22;23596;52.520;13.464;2023-03-08T16:21:07;3.40;99.90
37754;DHT22;23596;52.520;13.464;2023-03-08T16:23:33;3.30;99.90
37754;DHT22;23596;52.520;13.464;2023-03-08T16:26:05;3.20;99.90
37754;DHT22;23596;52.520;13.464;2023-03-08T16:28:31;3.20;99.90
37754;DHT22;23596;52.520;13.464;2023-03-08T16:30:57;3.40;99.90
37754;DHT22;23596;52.520;13.464;2023-03-08T16:33:25;3.30;99.90
37754;DHT22;23596;52.520;13.464;2023-03-08T16:35:52;3.30;99.90
37754;DHT22;23596;52.520;13.464;2023-03-08T16:38:18;3.30;99.90
37754;DHT22;23596;52.520;13.464;2023-03-08T16:40:44;3.20;99.90
37754;DHT22;23596;52.520;13.464;2023-03-08T16:43:10;3.20;99.90
37754;DHT22;23596;52.520;13.464;2023-03-08T16:45:36;3.20;99.90
37754;DHT22;23596;52.520;13.464;2023-03-08T16:48:03;3.20;99.90
37754;DHT22;23596;52.520;13.464;2023-03-08T16:50:29;3.20;99.90
37754;DHT22;23596;52.520;13.464;2023-03-08T16:52:56;3.20;99.90
37754;DHT22;23596;52.520;13.464;2023-03-08T16:55:23;3.20;99.90
37754;DHT22;23596;52.520;13.464;2023-03-08T16:57:49;3.20;99.90
37754;DHT22;23596;52.520;13.464;2023-03-08T17:00:15;3.20;99.90
37754;DHT22;23596;52.520;13.464;2023-03-08T17:02:41;3.20;99.90
37754;DHT22;23596;52.520;13.464;2023-03-08T17:05:08;3.20;99.90
37754;DHT22;23596;52.520;13.464;2023-03-08T17:07:36;3.20;99.90
37754;DHT22;23596;52.520;13.464;2023-03-08T17:10:03;3.10;99.90
37754;DHT22;23596;52.520;13.464;2023-03-08T17:12:29;3.10;99.90